sensor_id;sensor_type;location;lat;lon;timestamp;temperature;humidity
22153;DHT22;11242;50.536;12.688;2022-08-02T00:01:29;13.80;99.90
22153;DHT22;11242;50.536;12.688;2022-08-02T00:03:54;13.80;99.90
22153;DHT22;11242;50.536;12.688;2022-08-02T00:06:20;13.80;99.90
22153;DHT22;11242;50.536;12.688;2022-08-02T00:08:46;13.80;99.90
22153;DHT22;11242;50.536;12.688;2022-08-02T00:11:11;13.80;99.90
22153;DHT22;11242;50.536;12.688;2022-08-02T00:13:37;13.70;99.90
22153;DHT22;11242;50.536;12.688;2022-08-02T00:16:03;13.70;99.90
22153;DHT22;11242;50.536;12.688;2022-08-02T00:18:29;13.70;99.90
22153;DHT22;11242;50.536;12.688;2022-08-02T00:20:54;13.70;99.90
22153;DHT22;11242;50.536;12.688;2022-08-02T00:23:20;13.70;99.90
22153;DHT22;11242;50.536;12.688;2022-08-02T00:25:45;13.70;99.90
22153;DHT22;11242;50.536;12.688;2022-08-02T00:28:11;13.70;99.90
22153;DHT22;11242;50.536;12.688;2022-08-02T00:30:37;13.60;99.90
22153;DHT22;11242;50.536;12.688;2022-08-02T00:33:03;13.60;99.90
22153;DHT22;11242;50.536;12.688;2022-08-02T00:35:30;13.60;99.90
22153;DHT22;11242;50.536;12.688;2022-08-02T00:37:56;13.70;99.90
22153;DHT22;11242;50.536;12.688;2022-08-02T00:40:22;13.70;99.90
22153;DHT22;11242;50.536;12.688;2022-08-02T00:43:00;13.80;99.90
22153;DHT22;11242;50.536;12.688;2022-08-02T00:45:26;13.80;99.90
22153;DHT22;11242;50.536;12.688;2022-08-02T00:47:51;13.90;99.90
22153;DHT22;11242;50.536;12.688;2022-08-02T00:50:17;13.90;99.90
22153;DHT22;11242;50.536;12.688;2022-08-02T00:52:42;13.90;99.90
22153;DHT22;11242;50.536;12.688;2022-08-02T00:55:08;13.90;99.90
22153;DHT22;11242;50.536;12.688;2022-08-02T00:57:33;13.80;99.90
22153;DHT22;11242;50.536;12.688;2022-08-02T00:59:59;13.70;99.90
22153;DHT22;11242;50.536;12.688;2022-08-02T01:02:25;13.70;99.90
22153;DHT22;11242;50.536;12.688;2022-08-02T01:04:50;13.60;99.90
22153;DHT22;11242;50.536;12.688;2022-08-02T01:07:16;13.60;99.90
22153;DHT22;11242;50.536;12.688;2022-08-02T01:09:42;13.50;99.90
22153;DHT22;11242;50.536;12.688;2022-08-02T01:12:08;13.40;99.90
22153;DHT22;11242;50.536;12.688;2022-08-02T01:14:34;13.40;99.90
22153;DHT22;11242;50.536;12.688;2022-08-02T01:17:06;13.40;99.90
22153;DHT22;11242;50.536;12.688;2022-08-02T01:23:01;13.40;99.90
22153;DHT22;11242;50.536;12.688;2022-08-02T01:25:59;13.40;99.90
22153;DHT22;11242;50.536;12.688;2022-08-02T01:31:33;13.30;99.90
22153;DHT22;11242;50.536;12.688;2022-08-02T01:34:15;13.40;99.90
22153;DHT22;11242;50.536;12.688;2022-08-02T01:36:45;13.40;99.90
22153;DHT22;11242;50.536;12.688;2022-08-02T01:39:16;13.40;99.90
22153;DHT22;11242;50.536;12.688;2022-08-02T01:41:42;13.30;99.90
22153;DHT22;11242;50.536;12.688;2022-08-02T01:44:11;13.10;99.90
22153;DHT22;11242;50.536;12.688;2022-08-02T01:46:38;13.10;99.90
22153;DHT22;11242;50.536;12.688;2022-08-02T01:49:06;13.10;99.90
22153;DHT22;11242;50.536;12.688;2022-08-02T01:51:34;13.20;99.90
22153;DHT22;11242;50.536;12.688;2022-08-02T01:54:21;13.10;99.90
22153;DHT22;11242;50.536;12.688;2022-08-02T01:56:50;13.00;99.90
22153;DHT22;11242;50.536;12.688;2022-08-02T01:59:18;13.20;99.90
22153;DHT22;11242;50.536;12.688;2022-08-02T02:01:47;13.20;99.90
22153;DHT22;11242;50.536;12.688;2022-08-02T02:04:14;13.20;99.90
22153;DHT22;11242;50.536;12.688;2022-08-02T02:06:42;13.10;99.90
22153;DHT22;11242;50.536;12.688;2022-08-02T02:09:10;13.00;99.90
22153;DHT22;11242;50.536;12.688;2022-08-02T02:11:37;13.00;99.90
22153;DHT22;11242;50.536;12.688;2022-08-02T02:14:04;13.00;99.90
22153;DHT22;11242;50.536;12.688;2022-08-02T02:16:32;12.90;99.90
22153;DHT22;11242;50.536;12.688;2022-08-02T02:19:00;12.90;99.90
22153;DHT22;11242;50.536;12.688;2022-08-02T02:21:27;12.80;99.90
22153;DHT22;11242;50.536;12.688;2022-08-02T02:23:52;12.80;99.90
22153;DHT22;11242;50.536;12.688;2022-08-02T02:26:18;12.80;99.90
22153;DHT22;11242;50.536;12.688;2022-08-02T02:28:46;12.70;99.90
22153;DHT22;11242;50.536;12.688;2022-08-02T02:31:15;12.70;99.90
22153;DHT22;11242;50.536;12.688;2022-08-02T02:33:49;12.70;99.90
22153;DHT22;11242;50.536;12.688;2022-08-02T02:36:19;12.80;99.90
22153;DHT22;11242;50.536;12.688;2022-08-02T02:38:47;12.80;99.90
22153;DHT22;11242;50.536;12.688;2022-08-02T02:41:16;12.90;99.90
22153;DHT22;11242;50.536;12.688;2022-08-02T02:43:43;12.90;99.90
22153;DHT22;11242;50.536;12.688;2022-08-02T02:46:10;13.00;99.90
22153;DHT22;11242;50.536;12.688;2022-08-02T02:48:37;13.10;99.90
22153;DHT22;11242;50.536;12.688;2022-08-02T02:51:04;13.10;99.90
22153;DHT22;11242;50.536;12.688;2022-08-02T02:53:30;13.20;99.90
22153;DHT22;11242;50.536;12.688;2022-08-02T02:55:57;13.10;99.90
22153;DHT22;11242;50.536;12.688;2022-08-02T02:58:23;13.10;99.90
22153;DHT22;11242;50.536;12.688;2022-08-02T03:00:49;13.00;99.90
22153;DHT22;11242;50.536;12.688;2022-08-02T03:03:34;12.90;99.90
22153;DHT22;11242;50.536;12.688;2022-08-02T03:06:00;13.00;99.90
22153;DHT22;11242;50.536;12.688;2022-08-02T03:08:25;13.10;99.90
22153;DHT22;11242;50.536;12.688;2022-08-02T03:10:51;13.20;99.90
22153;DHT22;11242;50.536;12.688;2022-08-02T03:13:17;13.10;99.90
22153;DHT22;11242;50.536;12.688;2022-08-02T03:15:44;13.20;99.90
22153;DHT22;11242;50.536;12.688;2022-08-02T03:18:36;13.20;99.90
22153;DHT22;11242;50.536;12.688;2022-08-02T03:21:08;13.20;99.90
22153;DHT22;11242;50.536;12.688;2022-08-02T03:23:34;13.20;99.90
22153;DHT22;11242;50.536;12.688;2022-08-02T03:26:00;13.20;99.90
22153;DHT22;11242;50.536;12.688;2022-08-02T03:28:26;13.10;99.90
22153;DHT22;11242;50.536;12.688;2022-08-02T03:30:52;13.00;99.90
22153;DHT22;11242;50.536;12.688;2022-08-02T03:33:18;13.00;99.90
22153;DHT22;11242;50.536;12.688;2022-08-02T03:35:46;13.00;99.90
22153;DHT22;11242;50.536;12.688;2022-08-02T03:38:12;13.00;99.90
22153;DHT22;11242;50.536;12.688;2022-08-02T03:40:42;12.90;99.90
22153;DHT22;11242;50.536;12.688;2022-08-02T03:43:09;12.90;99.90
22153;DHT22;11242;50.536;12.688;2022-08-02T03:45:36;12.90;99.90
22153;DHT22;11242;50.536;12.688;2022-08-02T03:48:03;12.90;99.90
22153;DHT22;11242;50.536;12.688;2022-08-02T03:50:29;12.90;99.90
22153;DHT22;11242;50.536;12.688;2022-08-02T03:52:56;13.00;99.90
22153;DHT22;11242;50.536;12.688;2022-08-02T03:55:22;13.00;99.90
22153;DHT22;11242;50.536;12.688;2022-08-02T03:57:47;13.10;99.90
22153;DHT22;11242;50.536;12.688;2022-08-02T04:00:18;13.30;99.90
22153;DHT22;11242;50.536;12.688;2022-08-02T04:02:44;13.40;99.90
22153;DHT22;11242;50.536;12.688;2022-08-02T04:05:09;13.50;99.90
22153;DHT22;11242;50.536;12.688;2022-08-02T04:07:35;13.50;99.90
22153;DHT22;11242;50.536;12.688;2022-08-02T04:10:00;13.50;99.90
22153;DHT22;11242;50.536;12.688;2022-08-02T04:12:26;13.60;99.90
22153;DHT22;11242;50.536;12.688;2022-08-02T04:14:52;13.70;99.90
22153;DHT22;11242;50.536;12.688;2022-08-02T04:17:19;13.80;99.90
22153;DHT22;11242;50.536;12.688;2022-08-02T04:20:00;13.80;99.90
22153;DHT22;11242;50.536;12.688;2022-08-02T04:22:33;13.80;99.90
22153;DHT22;11242;50.536;12.688;2022-08-02T04:25:02;13.70;99.90
22153;DHT22;11242;50.536;12.688;2022-08-02T04:27:30;13.80;99.90
22153;DHT22;11242;50.536;12.688;2022-08-02T04:29:56;13.80;99.90
22153;DHT22;11242;50.536;12.688;2022-08-02T04:32:23;13.80;99.90
22153;DHT22;11242;50.536;12.688;2022-08-02T04:34:49;13.80;99.90
22153;DHT22;11242;50.536;12.688;2022-08-02T04:37:15;13.70;99.90
22153;DHT22;11242;50.536;12.688;2022-08-02T04:39:41;13.80;99.90
22153;DHT22;11242;50.536;12.688;2022-08-02T04:42:07;13.90;99.90
22153;DHT22;11242;50.536;12.688;2022-08-02T04:44:33;14.10;99.90
22153;DHT22;11242;50.536;12.688;2022-08-02T04:46:59;14.50;99.90
22153;DHT22;11242;50.536;12.688;2022-08-02T04:49:27;14.80;99.90
22153;DHT22;11242;50.536;12.688;2022-08-02T04:51:53;15.00;99.90
22153;DHT22;11242;50.536;12.688;2022-08-02T04:54:19;15.10;99.90
22153;DHT22;11242;50.536;12.688;2022-08-02T04:56:45;15.00;99.90
22153;DHT22;11242;50.536;12.688;2022-08-02T04:59:10;15.10;99.90
22153;DHT22;11242;50.536;12.688;2022-08-02T05:01:37;15.20;99.90
22153;DHT22;11242;50.536;12.688;2022-08-02T05:04:04;15.30;99.90
22153;DHT22;11242;50.536;12.688;2022-08-02T05:06:30;15.30;99.90
22153;DHT22;11242;50.536;12.688;2022-08-02T05:08:56;15.40;99.90
22153;DHT22;11242;50.536;12.688;2022-08-02T05:11:22;15.60;99.90
22153;DHT22;11242;50.536;12.688;2022-08-02T05:13:49;15.70;99.90
22153;DHT22;11242;50.536;12.688;2022-08-02T05:16:14;15.70;99.90
22153;DHT22;11242;50.536;12.688;2022-08-02T05:18:40;16.50;99.90
22153;DHT22;11242;50.536;12.688;2022-08-02T05:21:06;17.90;99.90
22153;DHT22;11242;50.536;12.688;2022-08-02T05:23:31;19.40;99.90
22153;DHT22;11242;50.536;12.688;2022-08-02T05:25:57;20.80;99.90
22153;DHT22;11242;50.536;12.688;2022-08-02T05:28:22;22.10;99.90
22153;DHT22;11242;50.536;12.688;2022-08-02T05:30:49;22.40;99.90
22153;DHT22;11242;50.536;12.688;2022-08-02T05:33:15;22.00;99.90
22153;DHT22;11242;50.536;12.688;2022-08-02T05:35:40;22.00;99.90
22153;DHT22;11242;50.536;12.688;2022-08-02T05:38:06;22.40;99.90
22153;DHT22;11242;50.536;12.688;2022-08-02T05:40:32;23.30;99.90
22153;DHT22;11242;50.536;12.688;2022-08-02T05:43:00;23.80;99.90
22153;DHT22;11242;50.536;12.688;2022-08-02T05:45:26;23.40;99.90
22153;DHT22;11242;50.536;12.688;2022-08-02T05:47:51;22.80;99.90
22153;DHT22;11242;50.536;12.688;2022-08-02T05:50:20;23.00;99.90
22153;DHT22;11242;50.536;12.688;2022-08-02T05:52:51;23.10;99.90
22153;DHT22;11242;50.536;12.688;2022-08-02T05:55:33;23.40;99.90
22153;DHT22;11242;50.536;12.688;2022-08-02T05:58:05;22.60;99.90
22153;DHT22;11242;50.536;12.688;2022-08-02T06:00:39;22.10;99.90
22153;DHT22;11242;50.536;12.688;2022-08-02T06:03:23;23.20;99.90
22153;DHT22;11242;50.536;12.688;2022-08-02T06:05:57;24.30;99.90
22153;DHT22;11242;50.536;12.688;2022-08-02T06:08:29;24.50;99.90
22153;DHT22;11242;50.536;12.688;2022-08-02T06:11:00;25.80;99.90
22153;DHT22;11242;50.536;12.688;2022-08-02T06:13:26;27.40;99.90
22153;DHT22;11242;50.536;12.688;2022-08-02T06:15:56;28.50;92.90
22153;DHT22;11242;50.536;12.688;2022-08-02T06:18:26;29.00;90.40
22153;DHT22;11242;50.536;12.688;2022-08-02T06:20:57;29.80;83.60
22153;DHT22;11242;50.536;12.688;2022-08-02T06:23:25;30.10;81.60
22153;DHT22;11242;50.536;12.688;2022-08-02T06:25:52;30.80;78.60
22153;DHT22;11242;50.536;12.688;2022-08-02T06:28:19;31.30;74.40
22153;DHT22;11242;50.536;12.688;2022-08-02T06:30:45;31.70;68.70
22153;DHT22;11242;50.536;12.688;2022-08-02T06:33:10;31.90;64.50
22153;DHT22;11242;50.536;12.688;2022-08-02T06:35:51;31.60;64.50
22153;DHT22;11242;50.536;12.688;2022-08-02T06:38:24;30.40;66.90
22153;DHT22;11242;50.536;12.688;2022-08-02T06:41:04;28.80;75.00
22153;DHT22;11242;50.536;12.688;2022-08-02T06:44:08;28.30;78.50
22153;DHT22;11242;50.536;12.688;2022-08-02T06:46:33;29.10;76.50
22153;DHT22;11242;50.536;12.688;2022-08-02T06:49:00;30.70;71.90
22153;DHT22;11242;50.536;12.688;2022-08-02T06:51:26;31.50;66.90
22153;DHT22;11242;50.536;12.688;2022-08-02T06:53:52;31.40;66.30
22153;DHT22;11242;50.536;12.688;2022-08-02T06:56:17;31.90;62.10
22153;DHT22;11242;50.536;12.688;2022-08-02T06:58:43;32.00;61.80
22153;DHT22;11242;50.536;12.688;2022-08-02T07:01:09;32.70;60.70
22153;DHT22;11242;50.536;12.688;2022-08-02T07:03:36;32.50;60.60
22153;DHT22;11242;50.536;12.688;2022-08-02T07:06:03;31.40;61.80
22153;DHT22;11242;50.536;12.688;2022-08-02T07:08:29;30.40;65.50
22153;DHT22;11242;50.536;12.688;2022-08-02T07:11:07;29.40;68.20
22153;DHT22;11242;50.536;12.688;2022-08-02T07:13:33;28.40;72.00
22153;DHT22;11242;50.536;12.688;2022-08-02T07:15:59;28.40;72.90
22153;DHT22;11242;50.536;12.688;2022-08-02T07:18:25;29.00;71.40
22153;DHT22;11242;50.536;12.688;2022-08-02T07:20:51;29.60;71.30
22153;DHT22;11242;50.536;12.688;2022-08-02T07:23:17;30.90;66.60
22153;DHT22;11242;50.536;12.688;2022-08-02T07:25:44;32.70;60.80
22153;DHT22;11242;50.536;12.688;2022-08-02T07:28:10;33.70;58.40
22153;DHT22;11242;50.536;12.688;2022-08-02T07:30:36;34.30;55.70
22153;DHT22;11242;50.536;12.688;2022-08-02T07:33:02;34.10;56.40
22153;DHT22;11242;50.536;12.688;2022-08-02T07:35:28;32.90;56.80
22153;DHT22;11242;50.536;12.688;2022-08-02T07:37:54;31.90;58.70
22153;DHT22;11242;50.536;12.688;2022-08-02T07:40:20;31.60;59.90
22153;DHT22;11242;50.536;12.688;2022-08-02T07:42:51;31.40;61.00
22153;DHT22;11242;50.536;12.688;2022-08-02T07:45:18;31.50;60.50
22153;DHT22;11242;50.536;12.688;2022-08-02T07:47:44;31.40;59.90
22153;DHT22;11242;50.536;12.688;2022-08-02T07:50:11;31.30;60.80
22153;DHT22;11242;50.536;12.688;2022-08-02T07:52:38;31.00;61.50
22153;DHT22;11242;50.536;12.688;2022-08-02T07:55:04;30.40;63.10
22153;DHT22;11242;50.536;12.688;2022-08-02T07:57:30;29.50;65.60
22153;DHT22;11242;50.536;12.688;2022-08-02T07:59:56;29.80;65.50
22153;DHT22;11242;50.536;12.688;2022-08-02T08:02:22;30.90;63.60
22153;DHT22;11242;50.536;12.688;2022-08-02T08:04:49;32.70;59.40
22153;DHT22;11242;50.536;12.688;2022-08-02T08:07:15;34.10;56.90
22153;DHT22;11242;50.536;12.688;2022-08-02T08:09:40;35.70;54.30
22153;DHT22;11242;50.536;12.688;2022-08-02T08:12:10;34.70;53.00
22153;DHT22;11242;50.536;12.688;2022-08-02T08:14:37;35.00;53.30
22153;DHT22;11242;50.536;12.688;2022-08-02T08:17:06;34.40;54.50
22153;DHT22;11242;50.536;12.688;2022-08-02T08:19:32;34.20;54.60
22153;DHT22;11242;50.536;12.688;2022-08-02T08:21:58;34.10;55.60
22153;DHT22;11242;50.536;12.688;2022-08-02T08:24:25;34.10;54.20
22153;DHT22;11242;50.536;12.688;2022-08-02T08:26:51;34.70;54.10
22153;DHT22;11242;50.536;12.688;2022-08-02T08:29:17;34.80;53.60
22153;DHT22;11242;50.536;12.688;2022-08-02T08:31:42;33.10;55.10
22153;DHT22;11242;50.536;12.688;2022-08-02T08:34:08;30.80;59.70
22153;DHT22;11242;50.536;12.688;2022-08-02T08:36:34;29.30;64.90
22153;DHT22;11242;50.536;12.688;2022-08-02T08:39:00;28.30;66.80
22153;DHT22;11242;50.536;12.688;2022-08-02T08:41:25;27.40;70.60
22153;DHT22;11242;50.536;12.688;2022-08-02T08:43:51;28.30;69.80
22153;DHT22;11242;50.536;12.688;2022-08-02T08:46:28;30.90;64.70
22153;DHT22;11242;50.536;12.688;2022-08-02T08:49:00;32.40;60.50
22153;DHT22;11242;50.536;12.688;2022-08-02T08:51:31;32.70;59.00
22153;DHT22;11242;50.536;12.688;2022-08-02T08:54:02;31.20;61.80
22153;DHT22;11242;50.536;12.688;2022-08-02T08:56:33;29.60;66.40
22153;DHT22;11242;50.536;12.688;2022-08-02T08:59:00;29.40;66.80
22153;DHT22;11242;50.536;12.688;2022-08-02T09:01:26;28.30;70.20
22153;DHT22;11242;50.536;12.688;2022-08-02T09:03:52;27.20;75.10
22153;DHT22;11242;50.536;12.688;2022-08-02T09:06:17;26.50;78.30
22153;DHT22;11242;50.536;12.688;2022-08-02T09:08:43;25.90;84.80
22153;DHT22;11242;50.536;12.688;2022-08-02T09:11:13;26.00;91.90
22153;DHT22;11242;50.536;12.688;2022-08-02T09:13:48;28.80;83.90
22153;DHT22;11242;50.536;12.688;2022-08-02T09:16:14;29.10;75.30
22153;DHT22;11242;50.536;12.688;2022-08-02T09:18:42;28.10;79.30
22153;DHT22;11242;50.536;12.688;2022-08-02T09:21:09;28.10;79.10
22153;DHT22;11242;50.536;12.688;2022-08-02T09:23:35;28.60;80.00
22153;DHT22;11242;50.536;12.688;2022-08-02T09:26:03;29.50;75.40
22153;DHT22;11242;50.536;12.688;2022-08-02T09:28:32;29.30;74.80
22153;DHT22;11242;50.536;12.688;2022-08-02T09:31:09;28.70;77.10
22153;DHT22;11242;50.536;12.688;2022-08-02T09:33:37;29.30;73.90
22153;DHT22;11242;50.536;12.688;2022-08-02T09:36:05;30.80;70.60
22153;DHT22;11242;50.536;12.688;2022-08-02T09:38:31;30.40;70.60
22153;DHT22;11242;50.536;12.688;2022-08-02T09:40:58;28.60;74.20
22153;DHT22;11242;50.536;12.688;2022-08-02T09:43:38;26.90;79.30
22153;DHT22;11242;50.536;12.688;2022-08-02T09:46:26;26.40;83.80
22153;DHT22;11242;50.536;12.688;2022-08-02T09:48:55;25.90;87.10
22153;DHT22;11242;50.536;12.688;2022-08-02T09:51:29;25.50;91.50
22153;DHT22;11242;50.536;12.688;2022-08-02T09:53:59;25.40;92.90
22153;DHT22;11242;50.536;12.688;2022-08-02T09:56:42;24.90;95.60
22153;DHT22;11242;50.536;12.688;2022-08-02T09:59:08;24.90;99.90
22153;DHT22;11242;50.536;12.688;2022-08-02T10:01:34;24.90;99.90
22153;DHT22;11242;50.536;12.688;2022-08-02T10:04:03;24.90;99.90
22153;DHT22;11242;50.536;12.688;2022-08-02T10:06:29;24.80;99.90
22153;DHT22;11242;50.536;12.688;2022-08-02T10:08:55;25.10;99.90
22153;DHT22;11242;50.536;12.688;2022-08-02T10:11:21;25.40;99.90
22153;DHT22;11242;50.536;12.688;2022-08-02T10:13:48;25.70;99.90
22153;DHT22;11242;50.536;12.688;2022-08-02T10:16:15;26.10;99.90
22153;DHT22;11242;50.536;12.688;2022-08-02T10:18:42;26.10;99.90
22153;DHT22;11242;50.536;12.688;2022-08-02T10:21:13;25.80;99.90
22153;DHT22;11242;50.536;12.688;2022-08-02T10:23:39;25.40;99.90
22153;DHT22;11242;50.536;12.688;2022-08-02T10:26:07;25.40;99.90
22153;DHT22;11242;50.536;12.688;2022-08-02T10:28:33;25.70;99.90
22153;DHT22;11242;50.536;12.688;2022-08-02T10:31:02;25.90;99.90
22153;DHT22;11242;50.536;12.688;2022-08-02T10:33:29;26.00;99.90
22153;DHT22;11242;50.536;12.688;2022-08-02T10:35:55;26.20;99.90
22153;DHT22;11242;50.536;12.688;2022-08-02T10:38:23;26.00;99.90
22153;DHT22;11242;50.536;12.688;2022-08-02T10:40:51;25.70;99.90
22153;DHT22;11242;50.536;12.688;2022-08-02T10:46:29;25.70;99.90
22153;DHT22;11242;50.536;12.688;2022-08-02T10:49:18;25.80;99.90
22153;DHT22;11242;50.536;12.688;2022-08-02T10:54:35;25.90;99.90
22153;DHT22;11242;50.536;12.688;2022-08-02T10:57:02;25.90;99.90
22153;DHT22;11242;50.536;12.688;2022-08-02T10:59:35;25.80;99.90
22153;DHT22;11242;50.536;12.688;2022-08-02T11:02:03;25.60;99.90
22153;DHT22;11242;50.536;12.688;2022-08-02T11:07:10;25.90;99.90
22153;DHT22;11242;50.536;12.688;2022-08-02T11:09:39;26.10;98.30
22153;DHT22;11242;50.536;12.688;2022-08-02T11:12:06;26.50;96.90
22153;DHT22;11242;50.536;12.688;2022-08-02T11:14:34;26.70;93.80
22153;DHT22;11242;50.536;12.688;2022-08-02T11:19:28;26.80;91.60
22153;DHT22;11242;50.536;12.688;2022-08-02T11:22:13;27.30;90.10
22153;DHT22;11242;50.536;12.688;2022-08-02T11:24:43;27.70;86.80
22153;DHT22;11242;50.536;12.688;2022-08-02T11:27:16;27.30;84.90
22153;DHT22;11242;50.536;12.688;2022-08-02T11:29:43;26.90;86.50
22153;DHT22;11242;50.536;12.688;2022-08-02T11:32:17;26.40;90.50
22153;DHT22;11242;50.536;12.688;2022-08-02T11:34:45;26.10;92.90
22153;DHT22;11242;50.536;12.688;2022-08-02T11:37:11;26.20;93.50
22153;DHT22;11242;50.536;12.688;2022-08-02T11:39:37;26.60;91.80
22153;DHT22;11242;50.536;12.688;2022-08-02T11:42:02;27.20;91.00
22153;DHT22;11242;50.536;12.688;2022-08-02T11:44:30;27.70;87.10
22153;DHT22;11242;50.536;12.688;2022-08-02T11:47:03;27.60;84.50
22153;DHT22;11242;50.536;12.688;2022-08-02T11:49:31;27.00;85.90
22153;DHT22;11242;50.536;12.688;2022-08-02T11:52:02;27.00;86.30
22153;DHT22;11242;50.536;12.688;2022-08-02T11:54:39;27.40;83.50
22153;DHT22;11242;50.536;12.688;2022-08-02T11:59:36;26.90;88.00
22153;DHT22;11242;50.536;12.688;2022-08-02T12:02:04;26.80;88.90
22153;DHT22;11242;50.536;12.688;2022-08-02T12:04:30;26.90;86.00
22153;DHT22;11242;50.536;12.688;2022-08-02T12:06:57;26.80;86.60
22153;DHT22;11242;50.536;12.688;2022-08-02T12:09:28;26.50;90.00
22153;DHT22;11242;50.536;12.688;2022-08-02T12:11:54;26.40;90.10
22153;DHT22;11242;50.536;12.688;2022-08-02T12:14:22;26.60;88.90
22153;DHT22;11242;50.536;12.688;2022-08-02T12:16:48;27.30;86.40
22153;DHT22;11242;50.536;12.688;2022-08-02T12:19:32;27.50;84.10
22153;DHT22;11242;50.536;12.688;2022-08-02T12:24:40;27.30;82.30
22153;DHT22;11242;50.536;12.688;2022-08-02T12:27:06;27.50;78.80
22153;DHT22;11242;50.536;12.688;2022-08-02T12:29:34;27.10;79.40
22153;DHT22;11242;50.536;12.688;2022-08-02T12:32:01;27.40;76.90
22153;DHT22;11242;50.536;12.688;2022-08-02T12:34:29;27.10;78.60
22153;DHT22;11242;50.536;12.688;2022-08-02T12:36:59;27.70;77.40
22153;DHT22;11242;50.536;12.688;2022-08-02T12:39:37;28.00;76.60
22153;DHT22;11242;50.536;12.688;2022-08-02T12:42:04;28.30;75.90
22153;DHT22;11242;50.536;12.688;2022-08-02T12:44:30;28.40;75.30
22153;DHT22;11242;50.536;12.688;2022-08-02T12:47:00;28.10;74.30
22153;DHT22;11242;50.536;12.688;2022-08-02T12:49:26;28.00;77.40
22153;DHT22;11242;50.536;12.688;2022-08-02T12:51:52;28.00;76.30
22153;DHT22;11242;50.536;12.688;2022-08-02T12:54:21;27.90;75.90
22153;DHT22;11242;50.536;12.688;2022-08-02T12:56:47;27.50;77.90
22153;DHT22;11242;50.536;12.688;2022-08-02T12:59:15;27.10;77.50
22153;DHT22;11242;50.536;12.688;2022-08-02T13:01:41;26.90;80.00
22153;DHT22;11242;50.536;12.688;2022-08-02T13:04:07;26.80;79.40
22153;DHT22;11242;50.536;12.688;2022-08-02T13:06:34;26.80;79.70
22153;DHT22;11242;50.536;12.688;2022-08-02T13:09:00;26.80;78.50
22153;DHT22;11242;50.536;12.688;2022-08-02T13:11:27;26.90;78.20
22153;DHT22;11242;50.536;12.688;2022-08-02T13:13:52;27.10;78.10
22153;DHT22;11242;50.536;12.688;2022-08-02T13:16:18;27.40;76.80
22153;DHT22;11242;50.536;12.688;2022-08-02T13:18:44;27.50;76.20
22153;DHT22;11242;50.536;12.688;2022-08-02T13:21:13;27.70;74.90
22153;DHT22;11242;50.536;12.688;2022-08-02T13:23:39;27.90;72.70
22153;DHT22;11242;50.536;12.688;2022-08-02T13:26:05;27.80;72.40
22153;DHT22;11242;50.536;12.688;2022-08-02T13:28:31;27.50;72.50
22153;DHT22;11242;50.536;12.688;2022-08-02T13:30:57;27.10;74.00
22153;DHT22;11242;50.536;12.688;2022-08-02T13:33:23;27.20;74.70
22153;DHT22;11242;50.536;12.688;2022-08-02T13:35:49;27.20;75.10
22153;DHT22;11242;50.536;12.688;2022-08-02T13:38:15;27.40;76.10
22153;DHT22;11242;50.536;12.688;2022-08-02T13:40:40;27.60;75.00
22153;DHT22;11242;50.536;12.688;2022-08-02T13:43:25;27.50;75.60
22153;DHT22;11242;50.536;12.688;2022-08-02T13:45:50;27.40;75.80
22153;DHT22;11242;50.536;12.688;2022-08-02T13:48:16;27.10;76.00
22153;DHT22;11242;50.536;12.688;2022-08-02T13:50:42;27.10;73.70
22153;DHT22;11242;50.536;12.688;2022-08-02T13:53:07;27.30;73.50
22153;DHT22;11242;50.536;12.688;2022-08-02T13:55:33;27.60;72.10
22153;DHT22;11242;50.536;12.688;2022-08-02T13:57:59;27.80;72.00
22153;DHT22;11242;50.536;12.688;2022-08-02T14:00:25;27.80;72.30
22153;DHT22;11242;50.536;12.688;2022-08-02T14:02:50;27.40;72.50
22153;DHT22;11242;50.536;12.688;2022-08-02T14:05:16;26.90;72.50
22153;DHT22;11242;50.536;12.688;2022-08-02T14:07:42;27.10;73.50
22153;DHT22;11242;50.536;12.688;2022-08-02T14:10:08;27.50;72.40
22153;DHT22;11242;50.536;12.688;2022-08-02T14:12:33;27.80;71.50
22153;DHT22;11242;50.536;12.688;2022-08-02T14:14:59;28.10;68.70
22153;DHT22;11242;50.536;12.688;2022-08-02T14:17:25;28.30;68.40
22153;DHT22;11242;50.536;12.688;2022-08-02T14:19:50;28.50;66.80
22153;DHT22;11242;50.536;12.688;2022-08-02T14:22:16;28.20;67.00
22153;DHT22;11242;50.536;12.688;2022-08-02T14:24:41;28.20;67.50
22153;DHT22;11242;50.536;12.688;2022-08-02T14:27:08;28.40;66.80
22153;DHT22;11242;50.536;12.688;2022-08-02T14:29:33;28.30;66.00
22153;DHT22;11242;50.536;12.688;2022-08-02T14:31:59;28.30;67.20
22153;DHT22;11242;50.536;12.688;2022-08-02T14:34:24;28.30;69.20
22153;DHT22;11242;50.536;12.688;2022-08-02T14:36:50;28.10;69.70
22153;DHT22;11242;50.536;12.688;2022-08-02T14:39:16;28.00;70.80
22153;DHT22;11242;50.536;12.688;2022-08-02T14:41:42;27.90;69.90
22153;DHT22;11242;50.536;12.688;2022-08-02T14:44:08;28.10;68.70
22153;DHT22;11242;50.536;12.688;2022-08-02T14:46:37;28.20;68.60
22153;DHT22;11242;50.536;12.688;2022-08-02T14:49:06;28.10;68.60
22153;DHT22;11242;50.536;12.688;2022-08-02T14:51:34;28.00;68.90
22153;DHT22;11242;50.536;12.688;2022-08-02T14:54:00;28.30;68.30
22153;DHT22;11242;50.536;12.688;2022-08-02T14:56:26;28.40;68.00
22153;DHT22;11242;50.536;12.688;2022-08-02T14:58:55;28.30;67.80
22153;DHT22;11242;50.536;12.688;2022-08-02T15:01:21;28.40;67.60
22153;DHT22;11242;50.536;12.688;2022-08-02T15:03:47;28.50;67.50
22153;DHT22;11242;50.536;12.688;2022-08-02T15:06:12;28.70;67.30
22153;DHT22;11242;50.536;12.688;2022-08-02T15:08:38;28.80;65.60
22153;DHT22;11242;50.536;12.688;2022-08-02T15:11:03;28.80;65.10
22153;DHT22;11242;50.536;12.688;2022-08-02T15:13:29;28.60;66.20
22153;DHT22;11242;50.536;12.688;2022-08-02T15:15:55;28.30;66.60
22153;DHT22;11242;50.536;12.688;2022-08-02T15:18:20;27.90;68.00
22153;DHT22;11242;50.536;12.688;2022-08-02T15:20:46;27.70;67.20
22153;DHT22;11242;50.536;12.688;2022-08-02T15:23:13;27.40;68.00
22153;DHT22;11242;50.536;12.688;2022-08-02T15:25:39;27.40;68.40
22153;DHT22;11242;50.536;12.688;2022-08-02T15:28:04;27.60;67.80
22153;DHT22;11242;50.536;12.688;2022-08-02T15:30:32;27.70;68.10
22153;DHT22;11242;50.536;12.688;2022-08-02T15:32:58;27.80;66.40
22153;DHT22;11242;50.536;12.688;2022-08-02T15:35:23;28.00;66.60
22153;DHT22;11242;50.536;12.688;2022-08-02T15:37:49;28.10;66.80
22153;DHT22;11242;50.536;12.688;2022-08-02T15:40:14;28.00;66.10
22153;DHT22;11242;50.536;12.688;2022-08-02T15:42:40;28.20;65.70